sensor_id;sensor_type;location;lat;lon;timestamp;P1;durP1;ratioP1;P2;durP2;ratioP2
18793;SDS011;29610;49.022;12.114;2023-06-10T00:01:41;13.63;;;7.20;;
18793;SDS011;29610;49.022;12.114;2023-06-10T00:04:14;13.67;;;7.63;;
18793;SDS011;29610;49.022;12.114;2023-06-10T00:06:43;12.87;;;7.13;;
18793;SDS011;29610;49.022;12.114;2023-06-10T00:09:15;14.00;;;7.50;;
18793;SDS011;29610;49.022;12.114;2023-06-10T00:11:45;16.80;;;8.20;;
18793;SDS011;29610;49.022;12.114;2023-06-10T00:14:14;13.20;;;6.80;;
18793;SDS011;29610;49.022;12.114;2023-06-10T00:16:43;16.50;;;8.20;;
18793;SDS011;29610;49.022;12.114;2023-06-10T00:19:12;14.93;;;8.50;;
18793;SDS011;29610;49.022;12.114;2023-06-10T00:21:42;15.43;;;7.80;;
18793;SDS011;29610;49.022;12.114;2023-06-10T00:24:11;13.20;;;7.40;;
18793;SDS011;29610;49.022;12.114;2023-06-10T00:26:40;16.43;;;8.07;;
18793;SDS011;29610;49.022;12.114;2023-06-10T00:29:09;22.67;;;7.97;;
18793;SDS011;29610;49.022;12.114;2023-06-10T00:31:39;14.40;;;7.37;;
18793;SDS011;29610;49.022;12.114;2023-06-10T00:34:08;14.20;;;7.73;;
18793;SDS011;29610;49.022;12.114;2023-06-10T00:36:37;14.40;;;7.50;;
18793;SDS011;29610;49.022;12.114;2023-06-10T00:39:06;13.67;;;7.43;;
18793;SDS011;29610;49.022;12.114;2023-06-10T00:41:36;16.80;;;9.00;;
18793;SDS011;29610;49.022;12.114;2023-06-10T00:44:04;16.90;;;8.20;;
18793;SDS011;29610;49.022;12.114;2023-06-10T00:46:33;17.03;;;8.50;;
18793;SDS011;29610;49.022;12.114;2023-06-10T00:49:05;14.03;;;8.20;;
18793;SDS011;29610;49.022;12.114;2023-06-10T00:51:36;15.03;;;7.90;;
18793;SDS011;29610;49.022;12.114;2023-06-10T00:54:06;14.87;;;8.20;;
18793;SDS011;29610;49.022;12.114;2023-06-10T00:56:36;14.40;;;7.80;;
18793;SDS011;29610;49.022;12.114;2023-06-10T00:59:05;15.40;;;8.60;;
18793;SDS011;29610;49.022;12.114;2023-06-10T01:01:33;15.00;;;8.30;;
18793;SDS011;29610;49.022;12.114;2023-06-10T01:04:05;16.90;;;8.07;;
18793;SDS011;29610;49.022;12.114;2023-06-10T01:06:40;15.17;;;8.47;;
18793;SDS011;29610;49.022;12.114;2023-06-10T01:09:21;15.37;;;8.23;;
18793;SDS011;29610;49.022;12.114;2023-06-10T01:12:02;14.33;;;7.90;;
18793;SDS011;29610;49.022;12.114;2023-06-10T01:14:39;16.83;;;9.30;;
18793;SDS011;29610;49.022;12.114;2023-06-10T01:17:12;15.63;;;8.20;;
18793;SDS011;29610;49.022;12.114;2023-06-10T01:19:45;20.20;;;10.27;;
18793;SDS011;29610;49.022;12.114;2023-06-10T01:22:24;19.23;;;9.93;;
18793;SDS011;29610;49.022;12.114;2023-06-10T01:24:55;17.00;;;9.17;;
18793;SDS011;29610;49.022;12.114;2023-06-10T01:27:26;15.47;;;8.50;;
18793;SDS011;29610;49.022;12.114;2023-06-10T01:30:08;17.40;;;8.70;;
18793;SDS011;29610;49.022;12.114;2023-06-10T01:32:44;17.47;;;8.80;;
18793;SDS011;29610;49.022;12.114;2023-06-10T01:35:17;15.23;;;9.00;;
18793;SDS011;29610;49.022;12.114;2023-06-10T01:37:54;16.77;;;9.47;;
18793;SDS011;29610;49.022;12.114;2023-06-10T01:40:26;15.07;;;8.50;;
18793;SDS011;29610;49.022;12.114;2023-06-10T01:42:57;19.00;;;8.67;;
18793;SDS011;29610;49.022;12.114;2023-06-10T01:45:25;15.80;;;7.80;;
18793;SDS011;29610;49.022;12.114;2023-06-10T01:47:54;16.67;;;8.50;;
18793;SDS011;29610;49.022;12.114;2023-06-10T01:50:23;18.73;;;8.73;;
18793;SDS011;29610;49.022;12.114;2023-06-10T01:52:56;17.03;;;8.43;;
18793;SDS011;29610;49.022;12.114;2023-06-10T01:55:28;14.40;;;8.10;;
18793;SDS011;29610;49.022;12.114;2023-06-10T01:57:56;14.40;;;7.57;;
18793;SDS011;29610;49.022;12.114;2023-06-10T02:00:25;13.57;;;7.67;;
18793;SDS011;29610;49.022;12.114;2023-06-10T02:02:54;14.57;;;7.80;;
18793;SDS011;29610;49.022;12.114;2023-06-10T02:05:23;13.70;;;7.70;;
18793;SDS011;29610;49.022;12.114;2023-06-10T02:07:52;14.70;;;7.77;;
18793;SDS011;29610;49.022;12.114;2023-06-10T02:10:23;13.27;;;7.60;;
18793;SDS011;29610;49.022;12.114;2023-06-10T02:12:52;14.00;;;7.40;;
18793;SDS011;29610;49.022;12.114;2023-06-10T02:15:20;15.50;;;7.80;;
18793;SDS011;29610;49.022;12.114;2023-06-10T02:17:49;16.37;;;9.03;;
18793;SDS011;29610;49.022;12.114;2023-06-10T02:20:18;14.30;;;7.50;;
18793;SDS011;29610;49.022;12.114;2023-06-10T02:22:47;17.33;;;9.27;;
18793;SDS011;29610;49.022;12.114;2023-06-10T02:25:16;19.00;;;9.23;;
18793;SDS011;29610;49.022;12.114;2023-06-10T02:27:46;18.33;;;9.00;;
18793;SDS011;29610;49.022;12.114;2023-06-10T02:30:14;18.00;;;9.93;;
18793;SDS011;29610;49.022;12.114;2023-06-10T02:32:44;17.60;;;10.43;;
18793;SDS011;29610;49.022;12.114;2023-06-10T02:35:17;17.10;;;10.07;;
18793;SDS011;29610;49.022;12.114;2023-06-10T02:37:46;18.63;;;9.20;;
18793;SDS011;29610;49.022;12.114;2023-06-10T02:40:15;18.17;;;10.53;;
18793;SDS011;29610;49.022;12.114;2023-06-10T02:42:45;20.47;;;10.50;;
18793;SDS011;29610;49.022;12.114;2023-06-10T02:45:14;21.50;;;11.17;;
18793;SDS011;29610;49.022;12.114;2023-06-10T02:47:43;17.77;;;9.53;;
18793;SDS011;29610;49.022;12.114;2023-06-10T02:50:12;17.90;;;9.67;;
18793;SDS011;29610;49.022;12.114;2023-06-10T02:52:55;18.70;;;8.50;;
18793;SDS011;29610;49.022;12.114;2023-06-10T02:55:24;17.93;;;9.60;;
18793;SDS011;29610;49.022;12.114;2023-06-10T02:58:00;18.47;;;10.10;;
18793;SDS011;29610;49.022;12.114;2023-06-10T03:00:30;19.33;;;9.10;;
18793;SDS011;29610;49.022;12.114;2023-06-10T03:03:00;18.40;;;9.10;;
18793;SDS011;29610;49.022;12.114;2023-06-10T03:05:34;18.50;;;10.50;;
18793;SDS011;29610;49.022;12.114;2023-06-10T03:08:05;18.30;;;9.83;;
18793;SDS011;29610;49.022;12.114;2023-06-10T03:10:36;18.50;;;10.27;;
18793;SDS011;29610;49.022;12.114;2023-06-10T03:13:07;18.80;;;9.30;;
18793;SDS011;29610;49.022;12.114;2023-06-10T03:15:37;19.97;;;10.67;;
18793;SDS011;29610;49.022;12.114;2023-06-10T03:18:11;17.13;;;10.00;;
18793;SDS011;29610;49.022;12.114;2023-06-10T03:20:40;20.90;;;10.80;;
18793;SDS011;29610;49.022;12.114;2023-06-10T03:23:11;20.00;;;10.07;;
18793;SDS011;29610;49.022;12.114;2023-06-10T03:25:40;18.13;;;9.90;;
18793;SDS011;29610;49.022;12.114;2023-06-10T03:28:14;21.77;;;10.70;;
18793;SDS011;29610;49.022;12.114;2023-06-10T03:30:43;22.60;;;10.10;;
18793;SDS011;29610;49.022;12.114;2023-06-10T03:33:12;18.47;;;9.90;;
18793;SDS011;29610;49.022;12.114;2023-06-10T03:35:42;18.03;;;9.77;;
18793;SDS011;29610;49.022;12.114;2023-06-10T03:38:12;18.93;;;9.93;;
18793;SDS011;29610;49.022;12.114;2023-06-10T03:40:42;19.73;;;11.30;;
18793;SDS011;29610;49.022;12.114;2023-06-10T03:43:11;19.97;;;11.37;;
18793;SDS011;29610;49.022;12.114;2023-06-10T03:45:41;19.60;;;11.40;;
18793;SDS011;29610;49.022;12.114;2023-06-10T03:48:10;21.13;;;11.67;;
18793;SDS011;29610;49.022;12.114;2023-06-10T03:50:46;23.37;;;12.40;;
18793;SDS011;29610;49.022;12.114;2023-06-10T03:53:17;21.70;;;10.87;;
18793;SDS011;29610;49.022;12.114;2023-06-10T03:55:46;19.13;;;11.00;;
18793;SDS011;29610;49.022;12.114;2023-06-10T03:58:18;23.27;;;11.80;;
18793;SDS011;29610;49.022;12.114;2023-06-10T04:00:48;22.30;;;11.43;;
18793;SDS011;29610;49.022;12.114;2023-06-10T04:03:17;21.27;;;12.30;;
18793;SDS011;29610;49.022;12.114;2023-06-10T04:05:50;22.30;;;11.50;;
18793;SDS011;29610;49.022;12.114;2023-06-10T04:08:20;20.47;;;11.47;;
18793;SDS011;29610;49.022;12.114;2023-06-10T04:10:48;22.80;;;12.10;;
18793;SDS011;29610;49.022;12.114;2023-06-10T04:13:17;19.00;;;11.50;;
18793;SDS011;29610;49.022;12.114;2023-06-10T04:15:56;23.43;;;13.43;;
18793;SDS011;29610;49.022;12.114;2023-06-10T04:18:26;20.57;;;10.77;;
18793;SDS011;29610;49.022;12.114;2023-06-10T04:20:58;22.03;;;11.67;;
18793;SDS011;29610;49.022;12.114;2023-06-10T04:23:27;21.20;;;11.97;;
18793;SDS011;29610;49.022;12.114;2023-06-10T04:25:56;18.63;;;11.10;;
18793;SDS011;29610;49.022;12.114;2023-06-10T04:28:26;19.80;;;11.70;;
18793;SDS011;29610;49.022;12.114;2023-06-10T04:30:57;24.20;;;11.93;;
18793;SDS011;29610;49.022;12.114;2023-06-10T04:33:26;20.10;;;11.20;;
18793;SDS011;29610;49.022;12.114;2023-06-10T04:35:55;23.00;;;12.20;;
18793;SDS011;29610;49.022;12.114;2023-06-10T04:38:27;21.87;;;11.87;;
18793;SDS011;29610;49.022;12.114;2023-06-10T04:40:58;18.97;;;10.97;;
18793;SDS011;29610;49.022;12.114;2023-06-10T04:43:30;21.40;;;10.43;;
18793;SDS011;29610;49.022;12.114;2023-06-10T04:46:01;17.70;;;10.10;;
18793;SDS011;29610;49.022;12.114;2023-06-10T04:48:34;20.70;;;12.00;;
18793;SDS011;29610;49.022;12.114;2023-06-10T04:51:03;26.90;;;11.30;;
18793;SDS011;29610;49.022;12.114;2023-06-10T04:53:32;21.40;;;11.40;;
18793;SDS011;29610;49.022;12.114;2023-06-10T04:56:01;20.67;;;11.37;;
18793;SDS011;29610;49.022;12.114;2023-06-10T04:58:30;18.20;;;10.83;;
18793;SDS011;29610;49.022;12.114;2023-06-10T05:00:59;19.37;;;10.17;;
18793;SDS011;29610;49.022;12.114;2023-06-10T05:03:29;20.27;;;9.70;;
18793;SDS011;29610;49.022;12.114;2023-06-10T05:05:58;16.07;;;9.37;;
18793;SDS011;29610;49.022;12.114;2023-06-10T05:08:27;18.13;;;9.83;;
18793;SDS011;29610;49.022;12.114;2023-06-10T05:10:56;17.43;;;9.57;;
18793;SDS011;29610;49.022;12.114;2023-06-10T05:13:25;17.03;;;9.17;;
18793;SDS011;29610;49.022;12.114;2023-06-10T05:15:53;17.27;;;9.87;;
18793;SDS011;29610;49.022;12.114;2023-06-10T05:18:24;16.33;;;9.53;;
18793;SDS011;29610;49.022;12.114;2023-06-10T05:20:53;16.00;;;9.00;;
18793;SDS011;29610;49.022;12.114;2023-06-10T05:23:22;15.43;;;9.10;;
18793;SDS011;29610;49.022;12.114;2023-06-10T05:25:50;17.33;;;8.90;;
18793;SDS011;29610;49.022;12.114;2023-06-10T05:28:19;17.93;;;10.00;;
18793;SDS011;29610;49.022;12.114;2023-06-10T05:30:48;18.10;;;9.73;;
18793;SDS011;29610;49.022;12.114;2023-06-10T05:33:16;22.60;;;9.33;;
18793;SDS011;29610;49.022;12.114;2023-06-10T05:35:46;18.67;;;8.93;;
18793;SDS011;29610;49.022;12.114;2023-06-10T05:38:15;16.43;;;8.77;;
18793;SDS011;29610;49.022;12.114;2023-06-10T05:40:44;20.93;;;10.33;;
18793;SDS011;29610;49.022;12.114;2023-06-10T05:43:13;17.57;;;9.50;;
18793;SDS011;29610;49.022;12.114;2023-06-10T05:45:43;15.70;;;9.07;;
18793;SDS011;29610;49.022;12.114;2023-06-10T05:48:12;15.97;;;9.77;;
18793;SDS011;29610;49.022;12.114;2023-06-10T05:50:41;16.30;;;8.77;;
18793;SDS011;29610;49.022;12.114;2023-06-10T05:53:16;16.30;;;8.93;;
18793;SDS011;29610;49.022;12.114;2023-06-10T05:55:45;15.40;;;8.60;;
18793;SDS011;29610;49.022;12.114;2023-06-10T05:58:15;14.33;;;8.17;;
18793;SDS011;29610;49.022;12.114;2023-06-10T06:00:43;16.53;;;7.87;;
18793;SDS011;29610;49.022;12.114;2023-06-10T06:03:12;16.00;;;8.37;;
18793;SDS011;29610;49.022;12.114;2023-06-10T06:05:41;14.97;;;7.80;;
18793;SDS011;29610;49.022;12.114;2023-06-10T06:08:10;14.03;;;8.37;;
18793;SDS011;29610;49.022;12.114;2023-06-10T06:10:41;15.80;;;8.70;;
18793;SDS011;29610;49.022;12.114;2023-06-10T06:13:10;15.77;;;8.87;;
18793;SDS011;29610;49.022;12.114;2023-06-10T06:15:39;15.60;;;9.10;;
18793;SDS011;29610;49.022;12.114;2023-06-10T06:18:08;18.30;;;9.80;;
18793;SDS011;29610;49.022;12.114;2023-06-10T06:20:36;16.17;;;9.33;;
18793;SDS011;29610;49.022;12.114;2023-06-10T06:23:05;17.23;;;9.23;;
18793;SDS011;29610;49.022;12.114;2023-06-10T06:25:36;15.17;;;8.30;;
18793;SDS011;29610;49.022;12.114;2023-06-10T06:28:07;15.20;;;8.53;;
18793;SDS011;29610;49.022;12.114;2023-06-10T06:30:38;21.67;;;8.40;;
18793;SDS011;29610;49.022;12.114;2023-06-10T06:33:06;19.63;;;7.90;;
18793;SDS011;29610;49.022;12.114;2023-06-10T06:35:35;16.10;;;8.87;;
18793;SDS011;29610;49.022;12.114;2023-06-10T06:38:05;13.40;;;7.43;;
18793;SDS011;29610;49.022;12.114;2023-06-10T06:40:34;16.00;;;8.83;;
18793;SDS011;29610;49.022;12.114;2023-06-10T06:43:04;16.20;;;8.30;;
18793;SDS011;29610;49.022;12.114;2023-06-10T06:45:57;13.90;;;7.93;;
18793;SDS011;29610;49.022;12.114;2023-06-10T06:48:26;15.93;;;8.17;;
18793;SDS011;29610;49.022;12.114;2023-06-10T06:50:55;13.57;;;7.07;;
18793;SDS011;29610;49.022;12.114;2023-06-10T06:53:25;11.40;;;6.47;;
18793;SDS011;29610;49.022;12.114;2023-06-10T06:55:58;13.10;;;7.83;;
18793;SDS011;29610;49.022;12.114;2023-06-10T06:58:27;11.40;;;6.67;;
18793;SDS011;29610;49.022;12.114;2023-06-10T07:00:57;12.20;;;6.60;;
18793;SDS011;29610;49.022;12.114;2023-06-10T07:03:26;12.10;;;6.00;;
18793;SDS011;29610;49.022;12.114;2023-06-10T07:05:55;14.40;;;6.43;;
18793;SDS011;29610;49.022;12.114;2023-06-10T07:08:23;10.97;;;5.40;;
18793;SDS011;29610;49.022;12.114;2023-06-10T07:10:52;11.67;;;5.57;;
18793;SDS011;29610;49.022;12.114;2023-06-10T07:13:22;11.87;;;6.67;;
18793;SDS011;29610;49.022;12.114;2023-06-10T07:15:51;11.20;;;5.90;;
18793;SDS011;29610;49.022;12.114;2023-06-10T07:18:21;12.67;;;6.00;;
18793;SDS011;29610;49.022;12.114;2023-06-10T07:20:50;11.60;;;5.60;;
18793;SDS011;29610;49.022;12.114;2023-06-10T07:23:19;12.20;;;5.97;;
18793;SDS011;29610;49.022;12.114;2023-06-10T07:25:48;11.60;;;5.73;;
18793;SDS011;29610;49.022;12.114;2023-06-10T07:28:16;12.23;;;5.77;;
18793;SDS011;29610;49.022;12.114;2023-06-10T07:30:45;11.80;;;5.60;;
18793;SDS011;29610;49.022;12.114;2023-06-10T07:33:14;13.07;;;5.93;;
18793;SDS011;29610;49.022;12.114;2023-06-10T07:35:44;12.20;;;5.30;;
18793;SDS011;29610;49.022;12.114;2023-06-10T07:38:13;11.10;;;5.57;;
18793;SDS011;29610;49.022;12.114;2023-06-10T07:40:41;11.93;;;6.07;;
18793;SDS011;29610;49.022;12.114;2023-06-10T07:43:10;14.03;;;5.43;;
18793;SDS011;29610;49.022;12.114;2023-06-10T07:45:39;10.70;;;4.60;;
18793;SDS011;29610;49.022;12.114;2023-06-10T07:48:08;11.13;;;5.37;;
18793;SDS011;29610;49.022;12.114;2023-06-10T07:50:37;10.53;;;5.20;;
18793;SDS011;29610;49.022;12.114;2023-06-10T07:53:08;11.80;;;6.03;;
18793;SDS011;29610;49.022;12.114;2023-06-10T07:55:37;12.70;;;6.20;;
18793;SDS011;29610;49.022;12.114;2023-06-10T07:58:05;11.53;;;5.37;;
18793;SDS011;29610;49.022;12.114;2023-06-10T08:00:34;16.90;;;6.90;;
18793;SDS011;29610;49.022;12.114;2023-06-10T08:03:03;12.73;;;5.50;;
18793;SDS011;29610;49.022;12.114;2023-06-10T08:05:32;11.57;;;5.10;;
18793;SDS011;29610;49.022;12.114;2023-06-10T08:08:01;15.40;;;5.60;;
18793;SDS011;29610;49.022;12.114;2023-06-10T08:10:31;11.20;;;5.03;;
18793;SDS011;29610;49.022;12.114;2023-06-10T08:13:00;13.60;;;5.90;;
18793;SDS011;29610;49.022;12.114;2023-06-10T08:15:29;10.37;;;5.23;;
18793;SDS011;29610;49.022;12.114;2023-06-10T08:17:57;11.10;;;5.40;;
18793;SDS011;29610;49.022;12.114;2023-06-10T08:20:26;10.47;;;5.23;;
18793;SDS011;29610;49.022;12.114;2023-06-10T08:22:55;10.80;;;5.17;;
18793;SDS011;29610;49.022;12.114;2023-06-10T08:25:24;10.23;;;4.23;;
18793;SDS011;29610;49.022;12.114;2023-06-10T08:27:54;10.50;;;4.73;;
18793;SDS011;29610;49.022;12.114;2023-06-10T08:30:23;10.70;;;4.83;;
18793;SDS011;29610;49.022;12.114;2023-06-10T08:32:52;11.83;;;5.20;;
18793;SDS011;29610;49.022;12.114;2023-06-10T08:35:20;10.77;;;5.63;;
18793;SDS011;29610;49.022;12.114;2023-06-10T08:37:50;11.10;;;5.60;;
18793;SDS011;29610;49.022;12.114;2023-06-10T08:40:19;12.30;;;5.43;;
18793;SDS011;29610;49.022;12.114;2023-06-10T08:42:49;12.93;;;5.80;;
18793;SDS011;29610;49.022;12.114;2023-06-10T08:45:34;11.27;;;5.40;;
18793;SDS011;29610;49.022;12.114;2023-06-10T08:48:05;10.20;;;5.20;;
18793;SDS011;29610;49.022;12.114;2023-06-10T08:50:36;10.17;;;5.10;;
18793;SDS011;29610;49.022;12.114;2023-06-10T08:53:06;10.87;;;5.50;;
18793;SDS011;29610;49.022;12.114;2023-06-10T08:55:36;11.97;;;4.70;;
18793;SDS011;29610;49.022;12.114;2023-06-10T08:58:11;9.60;;;4.80;;
18793;SDS011;29610;49.022;12.114;2023-06-10T09:00:41;10.50;;;5.53;;
18793;SDS011;29610;49.022;12.114;2023-06-10T09:03:11;10.30;;;5.33;;
18793;SDS011;29610;49.022;12.114;2023-06-10T09:05:41;10.10;;;5.23;;
18793;SDS011;29610;49.022;12.114;2023-06-10T09:08:11;11.17;;;5.20;;
18793;SDS011;29610;49.022;12.114;2023-06-10T09:10:40;11.50;;;5.37;;
18793;SDS011;29610;49.022;12.114;2023-06-10T09:13:11;11.53;;;4.97;;
18793;SDS011;29610;49.022;12.114;2023-06-10T09:15:42;12.07;;;5.77;;
18793;SDS011;29610;49.022;12.114;2023-06-10T09:18:12;11.03;;;5.80;;
18793;SDS011;29610;49.022;12.114;2023-06-10T09:20:41;11.07;;;5.60;;
18793;SDS011;29610;49.022;12.114;2023-06-10T09:23:11;10.80;;;5.80;;
18793;SDS011;29610;49.022;12.114;2023-06-10T09:25:41;11.50;;;6.13;;
18793;SDS011;29610;49.022;12.114;2023-06-10T09:28:14;10.27;;;5.07;;
18793;SDS011;29610;49.022;12.114;2023-06-10T09:30:43;10.80;;;5.70;;
18793;SDS011;29610;49.022;12.114;2023-06-10T09:33:12;16.00;;;7.00;;
18793;SDS011;29610;49.022;12.114;2023-06-10T09:35:46;11.63;;;5.40;;
18793;SDS011;29610;49.022;12.114;2023-06-10T09:38:19;10.40;;;4.93;;
18793;SDS011;29610;49.022;12.114;2023-06-10T09:40:49;10.67;;;5.37;;
18793;SDS011;29610;49.022;12.114;2023-06-10T09:43:21;9.67;;;4.50;;
18793;SDS011;29610;49.022;12.114;2023-06-10T09:45:50;10.77;;;5.00;;
18793;SDS011;29610;49.022;12.114;2023-06-10T09:48:24;9.33;;;4.37;;
18793;SDS011;29610;49.022;12.114;2023-06-10T09:50:53;10.03;;;4.60;;
18793;SDS011;29610;49.022;12.114;2023-06-10T09:53:22;9.80;;;5.17;;
18793;SDS011;29610;49.022;12.114;2023-06-10T09:55:51;11.03;;;5.03;;
18793;SDS011;29610;49.022;12.114;2023-06-10T09:58:34;10.03;;;5.00;;
18793;SDS011;29610;49.022;12.114;2023-06-10T10:01:05;11.63;;;5.40;;
18793;SDS011;29610;49.022;12.114;2023-06-10T10:03:42;10.67;;;6.00;;
18793;SDS011;29610;49.022;12.114;2023-06-10T10:06:14;11.43;;;6.10;;
18793;SDS011;29610;49.022;12.114;2023-06-10T10:08:45;11.53;;;6.43;;
18793;SDS011;29610;49.022;12.114;2023-06-10T10:11:17;13.33;;;7.50;;
18793;SDS011;29610;49.022;12.114;2023-06-10T10:13:49;10.90;;;5.27;;
18793;SDS011;29610;49.022;12.114;2023-06-10T10:16:20;13.50;;;5.80;;
18793;SDS011;29610;49.022;12.114;2023-06-10T10:18:55;12.40;;;6.60;;
18793;SDS011;29610;49.022;12.114;2023-06-10T10:21:30;11.87;;;5.73;;
18793;SDS011;29610;49.022;12.114;2023-06-10T10:24:09;11.20;;;6.03;;
18793;SDS011;29610;49.022;12.114;2023-06-10T10:26:45;16.00;;;6.07;;
18793;SDS011;29610;49.022;12.114;2023-06-10T10:29:29;10.70;;;5.13;;
18793;SDS011;29610;49.022;12.114;2023-06-10T10:32:06;10.23;;;4.87;;
18793;SDS011;29610;49.022;12.114;2023-06-10T10:34:41;11.00;;;5.43;;
18793;SDS011;29610;49.022;12.114;2023-06-10T10:37:19;9.73;;;4.90;;
18793;SDS011;29610;49.022;12.114;2023-06-10T10:39:48;10.77;;;5.03;;
18793;SDS011;29610;49.022;12.114;2023-06-10T10:42:18;11.40;;;5.60;;
18793;SDS011;29610;49.022;12.114;2023-06-10T10:44:49;9.60;;;4.63;;
18793;SDS011;29610;49.022;12.114;2023-06-10T10:47:19;10.07;;;4.37;;
18793;SDS011;29610;49.022;12.114;2023-06-10T10:49:50;10.37;;;4.67;;
18793;SDS011;29610;49.022;12.114;2023-06-10T10:52:20;9.30;;;4.57;;
18793;SDS011;29610;49.022;12.114;2023-06-10T10:54:49;9.93;;;5.53;;
18793;SDS011;29610;49.022;12.114;2023-06-10T10:57:23;15.50;;;7.37;;
18793;SDS011;29610;49.022;12.114;2023-06-10T10:59:59;13.83;;;6.53;;
18793;SDS011;29610;49.022;12.114;2023-06-10T11:02:34;17.00;;;8.23;;
18793;SDS011;29610;49.022;12.114;2023-06-10T11:05:11;16.87;;;7.53;;
18793;SDS011;29610;49.022;12.114;2023-06-10T11:07:51;12.97;;;6.80;;
18793;SDS011;29610;49.022;12.114;2023-06-10T11:10:28;15.03;;;7.97;;
18793;SDS011;29610;49.022;12.114;2023-06-10T11:12:59;14.70;;;7.50;;
18793;SDS011;29610;49.022;12.114;2023-06-10T11:15:39;14.50;;;7.20;;
18793;SDS011;29610;49.022;12.114;2023-06-10T11:18:14;13.40;;;7.00;;
18793;SDS011;29610;49.022;12.114;2023-06-10T11:20:54;13.10;;;7.10;;
18793;SDS011;29610;49.022;12.114;2023-06-10T11:23:32;13.37;;;6.83;;
18793;SDS011;29610;49.022;12.114;2023-06-10T11:26:19;14.30;;;7.30;;
18793;SDS011;29610;49.022;12.114;2023-06-10T11:29:06;12.83;;;6.73;;
18793;SDS011;29610;49.022;12.114;2023-06-10T11:31:42;12.10;;;6.70;;
18793;SDS011;29610;49.022;12.114;2023-06-10T11:34:14;15.53;;;7.93;;
18793;SDS011;29610;49.022;12.114;2023-06-10T11:36:50;13.13;;;7.07;;
18793;SDS011;29610;49.022;12.114;2023-06-10T11:39:20;14.80;;;7.23;;
18793;SDS011;29610;49.022;12.114;2023-06-10T11:41:52;12.40;;;6.67;;
18793;SDS011;29610;49.022;12.114;2023-06-10T11:44:22;14.80;;;8.27;;
18793;SDS011;29610;49.022;12.114;2023-06-10T11:47:00;13.20;;;7.40;;
18793;SDS011;29610;49.022;12.114;2023-06-10T11:49:29;11.40;;;6.67;;
18793;SDS011;29610;49.022;12.114;2023-06-10T11:51:57;12.20;;;6.80;;
18793;SDS011;29610;49.022;12.114;2023-06-10T11:54:27;12.37;;;6.93;;
18793;SDS011;29610;49.022;12.114;2023-06-10T11:56:57;12.87;;;6.73;;
18793;SDS011;29610;49.022;12.114;2023-06-10T11:59:27;11.00;;;5.50;;
18793;SDS011;29610;49.022;12.114;2023-06-10T12:01:56;12.70;;;6.73;;
18793;SDS011;29610;49.022;12.114;2023-06-10T12:04:27;11.50;;;6.80;;
18793;SDS011;29610;49.022;12.114;2023-06-10T12:06:56;11.73;;;5.87;;
18793;SDS011;29610;49.022;12.114;2023-06-10T12:09:25;11.53;;;6.17;;
18793;SDS011;29610;49.022;12.114;2023-06-10T12:11:57;11.50;;;5.03;;
18793;SDS011;29610;49.022;12.114;2023-06-10T12:17:23;10.93;;;5.73;;
18793;SDS011;29610;49.022;12.114;2023-06-10T12:20:07;10.47;;;5.23;;
18793;SDS011;29610;49.022;12.114;2023-06-10T12:22:54;11.00;;;5.83;;
18793;SDS011;29610;49.022;12.114;2023-06-10T12:25:26;9.60;;;5.20;;
18793;SDS011;29610;49.022;12.114;2023-06-10T12:27:57;22.13;;;4.90;;
18793;SDS011;29610;49.022;12.114;2023-06-10T12:30:26;12.03;;;5.20;;
18793;SDS011;29610;49.022;12.114;2023-06-10T12:32:56;11.53;;;5.57;;
18793;SDS011;29610;49.022;12.114;2023-06-10T12:35:26;10.00;;;5.50;;
18793;SDS011;29610;49.022;12.114;2023-06-10T12:37:56;10.80;;;6.17;;
18793;SDS011;29610;49.022;12.114;2023-06-10T12:40:28;11.03;;;5.27;;
18793;SDS011;29610;49.022;12.114;2023-06-10T12:42:59;10.77;;;5.67;;
18793;SDS011;29610;49.022;12.114;2023-06-10T12:45:28;10.00;;;5.03;;
18793;SDS011;29610;49.022;12.114;2023-06-10T12:48:05;13.27;;;5.40;;
18793;SDS011;29610;49.022;12.114;2023-06-10T12:50:39;10.20;;;5.07;;
18793;SDS011;29610;49.022;12.114;2023-06-10T12:53:10;8.70;;;4.07;;
18793;SDS011;29610;49.022;12.114;2023-06-10T12:55:39;9.13;;;4.30;;
18793;SDS011;29610;49.022;12.114;2023-06-10T12:58:08;9.90;;;4.33;;
18793;SDS011;29610;49.022;12.114;2023-06-10T13:00:37;9.70;;;4.40;;
18793;SDS011;29610;49.022;12.114;2023-06-10T13:03:06;10.37;;;4.50;;
18793;SDS011;29610;49.022;12.114;2023-06-10T13:05:37;9.23;;;4.70;;
18793;SDS011;29610;49.022;12.114;2023-06-10T13:08:08;9.37;;;4.50;;
18793;SDS011;29610;49.022;12.114;2023-06-10T13:10:37;9.70;;;4.63;;
18793;SDS011;29610;49.022;12.114;2023-06-10T13:13:07;8.27;;;3.70;;
18793;SDS011;29610;49.022;12.114;2023-06-10T13:15:36;8.23;;;3.50;;
18793;SDS011;29610;49.022;12.114;2023-06-10T13:18:09;7.83;;;3.07;;
18793;SDS011;29610;49.022;12.114;2023-06-10T13:20:40;9.03;;;4.00;;
18793;SDS011;29610;49.022;12.114;2023-06-10T13:23:09;9.07;;;4.00;;
18793;SDS011;29610;49.022;12.114;2023-06-10T13:25:38;11.03;;;4.00;;
18793;SDS011;29610;49.022;12.114;2023-06-10T13:28:08;9.20;;;4.27;;
18793;SDS011;29610;49.022;12.114;2023-06-10T13:30:37;9.50;;;4.00;;
18793;SDS011;29610;49.022;12.114;2023-06-10T13:33:06;8.87;;;4.30;;
18793;SDS011;29610;49.022;12.114;2023-06-10T13:35:35;11.43;;;4.83;;
18793;SDS011;29610;49.022;12.114;2023-06-10T13:38:05;12.90;;;5.77;;
18793;SDS011;29610;49.022;12.114;2023-06-10T13:40:34;16.73;;;5.60;;
18793;SDS011;29610;49.022;12.114;2023-06-10T13:43:03;20.00;;;7.50;;
18793;SDS011;29610;49.022;12.114;2023-06-10T13:45:32;19.97;;;8.23;;
18793;SDS011;29610;49.022;12.114;2023-06-10T13:48:01;13.47;;;7.33;;
18793;SDS011;29610;49.022;12.114;2023-06-10T13:50:31;23.70;;;8.47;;
18793;SDS011;29610;49.022;12.114;2023-06-10T13:52:59;14.97;;;7.53;;
18793;SDS011;29610;49.022;12.114;2023-06-10T13:55:31;15.50;;;7.37;;
18793;SDS011;29610;49.022;12.114;2023-06-10T13:58:00;13.20;;;6.73;;
18793;SDS011;29610;49.022;12.114;2023-06-10T14:00:29;15.60;;;7.30;;
18793;SDS011;29610;49.022;12.114;2023-06-10T14:02:58;14.03;;;7.57;;
18793;SDS011;29610;49.022;12.114;2023-06-10T14:05:27;18.30;;;7.70;;
18793;SDS011;29610;49.022;12.114;2023-06-10T14:07:57;12.70;;;6.70;;
18793;SDS011;29610;49.022;12.114;2023-06-10T14:10:26;18.20;;;7.10;;
18793;SDS011;29610;49.022;12.114;2023-06-10T14:12:56;12.50;;;6.77;;
18793;SDS011;29610;49.022;12.114;2023-06-10T14:15:26;14.40;;;7.53;;
18793;SDS011;29610;49.022;12.114;2023-06-10T14:17:55;13.10;;;7.00;;
18793;SDS011;29610;49.022;12.114;2023-06-10T14:20:24;15.10;;;7.80;;
18793;SDS011;29610;49.022;12.114;2023-06-10T14:22:53;15.53;;;7.97;;
18793;SDS011;29610;49.022;12.114;2023-06-10T14:25:22;16.77;;;7.70;;
18793;SDS011;29610;49.022;12.114;2023-06-10T14:27:51;14.20;;;7.90;;
18793;SDS011;29610;49.022;12.114;2023-06-10T14:30:21;18.87;;;8.17;;
18793;SDS011;29610;49.022;12.114;2023-06-10T14:32:49;14.30;;;7.77;;
18793;SDS011;29610;49.022;12.114;2023-06-10T14:35:18;14.10;;;7.70;;
18793;SDS011;29610;49.022;12.114;2023-06-10T14:37:48;13.80;;;7.77;;
18793;SDS011;29610;49.022;12.114;2023-06-10T14:40:17;12.93;;;6.50;;
18793;SDS011;29610;49.022;12.114;2023-06-10T14:42:48;12.57;;;5.80;;
18793;SDS011;29610;49.022;12.114;2023-06-10T14:45:16;12.53;;;6.77;;